sensor_id;sensor_type;location;lat;lon;timestamp;P1;durP1;ratioP1;P2;durP2;ratioP2
1935;SDS011;969;49.892;10.896;2023-06-26T00:00:24;6.40;;;5.80;;
1935;SDS011;969;49.892;10.896;2023-06-26T00:02:49;5.87;;;5.37;;
1935;SDS011;969;49.892;10.896;2023-06-26T00:05:15;6.27;;;5.67;;
1935;SDS011;969;49.892;10.896;2023-06-26T00:07:41;6.83;;;5.30;;
1935;SDS011;969;49.892;10.896;2023-06-26T00:10:06;5.77;;;5.17;;
1935;SDS011;969;49.892;10.896;2023-06-26T00:12:32;5.60;;;5.10;;
1935;SDS011;969;49.892;10.896;2023-06-26T00:14:58;5.90;;;5.40;;
1935;SDS011;969;49.892;10.896;2023-06-26T00:17:23;6.53;;;5.93;;
1935;SDS011;969;49.892;10.896;2023-06-26T00:19:49;6.50;;;5.87;;
1935;SDS011;969;49.892;10.896;2023-06-26T00:22:15;6.00;;;5.50;;
1935;SDS011;969;49.892;10.896;2023-06-26T00:24:41;6.53;;;5.93;;
1935;SDS011;969;49.892;10.896;2023-06-26T00:27:07;6.27;;;5.77;;
1935;SDS011;969;49.892;10.896;2023-06-26T00:29:33;6.80;;;5.93;;
1935;SDS011;969;49.892;10.896;2023-06-26T00:31:58;5.90;;;5.40;;
1935;SDS011;969;49.892;10.896;2023-06-26T00:34:24;5.60;;;5.10;;
1935;SDS011;969;49.892;10.896;2023-06-26T00:36:49;6.77;;;5.97;;
1935;SDS011;969;49.892;10.896;2023-06-26T00:39:15;7.13;;;6.53;;
1935;SDS011;969;49.892;10.896;2023-06-26T00:41:41;5.73;;;5.23;;
1935;SDS011;969;49.892;10.896;2023-06-26T00:44:07;6.30;;;5.70;;
1935;SDS011;969;49.892;10.896;2023-06-26T00:46:32;7.10;;;6.40;;
1935;SDS011;969;49.892;10.896;2023-06-26T00:48:59;6.93;;;6.33;;
1935;SDS011;969;49.892;10.896;2023-06-26T00:51:28;6.93;;;6.37;;
1935;SDS011;969;49.892;10.896;2023-06-26T00:53:55;6.87;;;6.27;;
1935;SDS011;969;49.892;10.896;2023-06-26T00:56:22;5.97;;;5.47;;
1935;SDS011;969;49.892;10.896;2023-06-26T00:58:48;5.70;;;5.20;;
1935;SDS011;969;49.892;10.896;2023-06-26T01:01:14;6.57;;;6.03;;
1935;SDS011;969;49.892;10.896;2023-06-26T01:03:42;6.80;;;6.20;;
1935;SDS011;969;49.892;10.896;2023-06-26T01:06:10;5.73;;;5.23;;
1935;SDS011;969;49.892;10.896;2023-06-26T01:08:38;5.37;;;4.90;;
1935;SDS011;969;49.892;10.896;2023-06-26T01:11:05;6.40;;;5.80;;
1935;SDS011;969;49.892;10.896;2023-06-26T01:13:32;7.10;;;6.20;;
1935;SDS011;969;49.892;10.896;2023-06-26T01:15:59;6.30;;;5.70;;
1935;SDS011;969;49.892;10.896;2023-06-26T01:18:25;7.67;;;6.87;;
1935;SDS011;969;49.892;10.896;2023-06-26T01:20:51;6.80;;;6.20;;
1935;SDS011;969;49.892;10.896;2023-06-26T01:23:28;6.43;;;5.83;;
1935;SDS011;969;49.892;10.896;2023-06-26T01:28:45;5.50;;;5.00;;
1935;SDS011;969;49.892;10.896;2023-06-26T01:31:11;6.00;;;5.40;;
1935;SDS011;969;49.892;10.896;2023-06-26T01:33:38;6.50;;;5.90;;
1935;SDS011;969;49.892;10.896;2023-06-26T01:36:05;6.60;;;6.00;;
1935;SDS011;969;49.892;10.896;2023-06-26T01:38:31;6.73;;;6.03;;
1935;SDS011;969;49.892;10.896;2023-06-26T01:40:57;6.20;;;5.60;;
1935;SDS011;969;49.892;10.896;2023-06-26T01:49:06;6.97;;;6.17;;
1935;SDS011;969;49.892;10.896;2023-06-26T01:57:31;6.60;;;6.10;;
1935;SDS011;969;49.892;10.896;2023-06-26T01:59:58;5.97;;;5.37;;
1935;SDS011;969;49.892;10.896;2023-06-26T02:02:27;6.40;;;5.80;;
1935;SDS011;969;49.892;10.896;2023-06-26T02:04:53;5.37;;;4.90;;
1935;SDS011;969;49.892;10.896;2023-06-26T02:07:19;6.40;;;5.80;;
1935;SDS011;969;49.892;10.896;2023-06-26T02:09:45;6.27;;;5.70;;
1935;SDS011;969;49.892;10.896;2023-06-26T02:12:10;6.40;;;5.80;;
1935;SDS011;969;49.892;10.896;2023-06-26T02:14:36;7.20;;;6.60;;
1935;SDS011;969;49.892;10.896;2023-06-26T02:17:01;6.00;;;5.50;;
1935;SDS011;969;49.892;10.896;2023-06-26T02:19:27;6.10;;;5.60;;
1935;SDS011;969;49.892;10.896;2023-06-26T02:21:53;6.10;;;5.60;;
1935;SDS011;969;49.892;10.896;2023-06-26T02:24:19;6.20;;;5.60;;
1935;SDS011;969;49.892;10.896;2023-06-26T02:26:44;6.13;;;5.60;;
1935;SDS011;969;49.892;10.896;2023-06-26T02:29:11;6.40;;;5.83;;
1935;SDS011;969;49.892;10.896;2023-06-26T02:31:36;5.63;;;5.10;;
1935;SDS011;969;49.892;10.896;2023-06-26T02:34:03;6.23;;;5.63;;
1935;SDS011;969;49.892;10.896;2023-06-26T02:36:29;6.20;;;5.60;;
1935;SDS011;969;49.892;10.896;2023-06-26T02:38:54;6.70;;;5.23;;
1935;SDS011;969;49.892;10.896;2023-06-26T02:41:20;5.70;;;5.20;;
1935;SDS011;969;49.892;10.896;2023-06-26T02:43:46;6.43;;;5.83;;
1935;SDS011;969;49.892;10.896;2023-06-26T02:46:11;5.77;;;5.27;;
1935;SDS011;969;49.892;10.896;2023-06-26T02:48:37;7.10;;;6.50;;
1935;SDS011;969;49.892;10.896;2023-06-26T02:51:03;6.17;;;5.50;;
1935;SDS011;969;49.892;10.896;2023-06-26T02:53:28;6.93;;;6.23;;
1935;SDS011;969;49.892;10.896;2023-06-26T02:55:54;6.40;;;5.80;;
1935;SDS011;969;49.892;10.896;2023-06-26T02:58:19;5.90;;;5.40;;
1935;SDS011;969;49.892;10.896;2023-06-26T03:00:45;6.07;;;5.57;;
1935;SDS011;969;49.892;10.896;2023-06-26T03:03:11;6.27;;;5.67;;
1935;SDS011;969;49.892;10.896;2023-06-26T03:05:38;6.03;;;5.43;;
1935;SDS011;969;49.892;10.896;2023-06-26T03:08:03;6.40;;;5.60;;
1935;SDS011;969;49.892;10.896;2023-06-26T03:10:29;6.53;;;5.77;;
1935;SDS011;969;49.892;10.896;2023-06-26T03:12:55;5.90;;;5.40;;
1935;SDS011;969;49.892;10.896;2023-06-26T03:15:20;6.47;;;5.97;;
1935;SDS011;969;49.892;10.896;2023-06-26T03:17:46;6.93;;;6.27;;
1935;SDS011;969;49.892;10.896;2023-06-26T03:20:11;5.90;;;5.43;;
1935;SDS011;969;49.892;10.896;2023-06-26T03:22:37;6.10;;;5.50;;
1935;SDS011;969;49.892;10.896;2023-06-26T03:25:02;5.70;;;5.20;;
1935;SDS011;969;49.892;10.896;2023-06-26T03:27:29;5.80;;;5.30;;
1935;SDS011;969;49.892;10.896;2023-06-26T03:29:55;5.60;;;5.10;;
1935;SDS011;969;49.892;10.896;2023-06-26T03:32:21;6.30;;;5.70;;
1935;SDS011;969;49.892;10.896;2023-06-26T03:34:46;6.33;;;5.73;;
1935;SDS011;969;49.892;10.896;2023-06-26T03:37:12;5.20;;;4.70;;
1935;SDS011;969;49.892;10.896;2023-06-26T03:39:38;6.07;;;5.57;;
1935;SDS011;969;49.892;10.896;2023-06-26T03:42:03;6.07;;;5.60;;
1935;SDS011;969;49.892;10.896;2023-06-26T03:44:29;6.23;;;5.73;;
1935;SDS011;969;49.892;10.896;2023-06-26T03:46:55;6.63;;;5.93;;
1935;SDS011;969;49.892;10.896;2023-06-26T03:49:20;6.67;;;6.10;;
1935;SDS011;969;49.892;10.896;2023-06-26T03:51:46;6.03;;;5.53;;
1935;SDS011;969;49.892;10.896;2023-06-26T03:54:11;6.67;;;6.10;;
1935;SDS011;969;49.892;10.896;2023-06-26T03:56:37;6.67;;;6.07;;
1935;SDS011;969;49.892;10.896;2023-06-26T03:59:03;6.23;;;5.73;;
1935;SDS011;969;49.892;10.896;2023-06-26T04:01:28;5.83;;;5.23;;
1935;SDS011;969;49.892;10.896;2023-06-26T04:03:54;6.20;;;5.60;;
1935;SDS011;969;49.892;10.896;2023-06-26T04:06:20;5.60;;;5.10;;
1935;SDS011;969;49.892;10.896;2023-06-26T04:08:45;5.67;;;5.17;;
1935;SDS011;969;49.892;10.896;2023-06-26T04:11:11;6.10;;;5.50;;
1935;SDS011;969;49.892;10.896;2023-06-26T04:13:36;5.33;;;4.83;;
1935;SDS011;969;49.892;10.896;2023-06-26T04:16:02;5.80;;;5.30;;
1935;SDS011;969;49.892;10.896;2023-06-26T04:18:28;6.27;;;5.77;;
1935;SDS011;969;49.892;10.896;2023-06-26T04:21:10;6.33;;;5.73;;
1935;SDS011;969;49.892;10.896;2023-06-26T04:23:37;6.40;;;5.80;;
1935;SDS011;969;49.892;10.896;2023-06-26T04:26:04;6.77;;;6.10;;
1935;SDS011;969;49.892;10.896;2023-06-26T04:28:31;7.50;;;6.80;;
1935;SDS011;969;49.892;10.896;2023-06-26T04:30:57;7.07;;;6.37;;
1935;SDS011;969;49.892;10.896;2023-06-26T04:33:24;7.23;;;6.40;;
1935;SDS011;969;49.892;10.896;2023-06-26T04:35:50;7.07;;;6.37;;
1935;SDS011;969;49.892;10.896;2023-06-26T04:38:16;7.33;;;6.37;;
1935;SDS011;969;49.892;10.896;2023-06-26T04:40:42;7.47;;;6.70;;
1935;SDS011;969;49.892;10.896;2023-06-26T04:43:07;8.40;;;6.63;;
1935;SDS011;969;49.892;10.896;2023-06-26T04:45:33;7.20;;;6.57;;
1935;SDS011;969;49.892;10.896;2023-06-26T04:47:59;8.00;;;7.20;;
1935;SDS011;969;49.892;10.896;2023-06-26T04:50:27;7.27;;;6.57;;
1935;SDS011;969;49.892;10.896;2023-06-26T04:52:54;7.13;;;6.00;;
1935;SDS011;969;49.892;10.896;2023-06-26T04:55:20;7.20;;;6.20;;
1935;SDS011;969;49.892;10.896;2023-06-26T04:57:46;6.57;;;5.97;;
1935;SDS011;969;49.892;10.896;2023-06-26T05:00:12;6.90;;;6.30;;
1935;SDS011;969;49.892;10.896;2023-06-26T05:02:38;5.40;;;4.90;;
1935;SDS011;969;49.892;10.896;2023-06-26T05:05:04;7.00;;;6.30;;
1935;SDS011;969;49.892;10.896;2023-06-26T05:07:30;8.10;;;7.33;;
1935;SDS011;969;49.892;10.896;2023-06-26T05:09:55;7.33;;;6.30;;
1935;SDS011;969;49.892;10.896;2023-06-26T05:12:21;6.93;;;6.30;;
1935;SDS011;969;49.892;10.896;2023-06-26T05:14:47;9.70;;;6.87;;
1935;SDS011;969;49.892;10.896;2023-06-26T05:17:15;6.00;;;5.47;;
1935;SDS011;969;49.892;10.896;2023-06-26T05:19:41;7.20;;;6.50;;
1935;SDS011;969;49.892;10.896;2023-06-26T05:22:07;7.40;;;6.70;;
1935;SDS011;969;49.892;10.896;2023-06-26T05:24:36;8.37;;;7.50;;
1935;SDS011;969;49.892;10.896;2023-06-26T05:27:03;7.30;;;6.60;;
1935;SDS011;969;49.892;10.896;2023-06-26T05:29:33;6.90;;;5.97;;
1935;SDS011;969;49.892;10.896;2023-06-26T05:31:59;7.53;;;6.80;;
1935;SDS011;969;49.892;10.896;2023-06-26T05:34:25;7.33;;;6.70;;
1935;SDS011;969;49.892;10.896;2023-06-26T05:36:55;6.93;;;6.23;;
1935;SDS011;969;49.892;10.896;2023-06-26T05:39:23;7.40;;;6.70;;
1935;SDS011;969;49.892;10.896;2023-06-26T05:41:50;7.03;;;6.37;;
1935;SDS011;969;49.892;10.896;2023-06-26T05:44:16;7.50;;;6.80;;
1935;SDS011;969;49.892;10.896;2023-06-26T05:46:42;7.10;;;6.40;;
1935;SDS011;969;49.892;10.896;2023-06-26T05:49:08;8.50;;;6.67;;
1935;SDS011;969;49.892;10.896;2023-06-26T05:51:34;6.77;;;6.17;;
1935;SDS011;969;49.892;10.896;2023-06-26T05:54:00;8.87;;;7.97;;
1935;SDS011;969;49.892;10.896;2023-06-26T05:56:26;6.13;;;5.10;;
1935;SDS011;969;49.892;10.896;2023-06-26T05:58:53;7.33;;;6.13;;
1935;SDS011;969;49.892;10.896;2023-06-26T06:01:19;7.07;;;6.37;;
1935;SDS011;969;49.892;10.896;2023-06-26T06:03:44;6.70;;;5.93;;
1935;SDS011;969;49.892;10.896;2023-06-26T06:06:10;7.30;;;6.70;;
1935;SDS011;969;49.892;10.896;2023-06-26T06:08:36;6.80;;;5.93;;
1935;SDS011;969;49.892;10.896;2023-06-26T06:11:02;7.10;;;6.10;;
1935;SDS011;969;49.892;10.896;2023-06-26T06:13:27;7.57;;;6.77;;
1935;SDS011;969;49.892;10.896;2023-06-26T06:15:53;6.60;;;6.00;;
1935;SDS011;969;49.892;10.896;2023-06-26T06:18:19;7.00;;;6.27;;
1935;SDS011;969;49.892;10.896;2023-06-26T06:20:45;8.17;;;6.30;;
1935;SDS011;969;49.892;10.896;2023-06-26T06:23:11;6.90;;;6.30;;
1935;SDS011;969;49.892;10.896;2023-06-26T06:25:36;7.43;;;6.60;;
1935;SDS011;969;49.892;10.896;2023-06-26T06:28:03;7.73;;;6.20;;
1935;SDS011;969;49.892;10.896;2023-06-26T06:30:29;6.70;;;6.10;;
1935;SDS011;969;49.892;10.896;2023-06-26T06:32:55;6.87;;;6.17;;
1935;SDS011;969;49.892;10.896;2023-06-26T06:35:20;7.67;;;6.47;;
1935;SDS011;969;49.892;10.896;2023-06-26T06:37:46;6.77;;;5.97;;
1935;SDS011;969;49.892;10.896;2023-06-26T06:40:12;6.77;;;6.07;;
1935;SDS011;969;49.892;10.896;2023-06-26T06:42:38;7.30;;;6.10;;
1935;SDS011;969;49.892;10.896;2023-06-26T06:45:04;7.00;;;6.40;;
1935;SDS011;969;49.892;10.896;2023-06-26T06:47:31;9.30;;;7.07;;
1935;SDS011;969;49.892;10.896;2023-06-26T06:49:57;6.40;;;5.77;;
1935;SDS011;969;49.892;10.896;2023-06-26T06:52:24;6.53;;;5.93;;
1935;SDS011;969;49.892;10.896;2023-06-26T06:54:53;6.43;;;5.83;;
1935;SDS011;969;49.892;10.896;2023-06-26T06:57:20;6.30;;;5.67;;
1935;SDS011;969;49.892;10.896;2023-06-26T06:59:47;7.37;;;6.57;;
1935;SDS011;969;49.892;10.896;2023-06-26T07:02:13;7.50;;;6.70;;
1935;SDS011;969;49.892;10.896;2023-06-26T07:04:41;8.77;;;6.20;;
1935;SDS011;969;49.892;10.896;2023-06-26T07:07:07;7.40;;;6.70;;
1935;SDS011;969;49.892;10.896;2023-06-26T07:09:33;7.53;;;6.43;;
1935;SDS011;969;49.892;10.896;2023-06-26T07:11:59;7.50;;;6.80;;
1935;SDS011;969;49.892;10.896;2023-06-26T07:14:25;7.87;;;6.20;;
1935;SDS011;969;49.892;10.896;2023-06-26T07:16:50;7.23;;;6.00;;
1935;SDS011;969;49.892;10.896;2023-06-26T07:19:16;6.90;;;6.20;;
1935;SDS011;969;49.892;10.896;2023-06-26T07:21:42;8.20;;;6.50;;
1935;SDS011;969;49.892;10.896;2023-06-26T07:24:09;7.17;;;5.70;;
1935;SDS011;969;49.892;10.896;2023-06-26T07:26:35;8.43;;;6.17;;
1935;SDS011;969;49.892;10.896;2023-06-26T07:29:01;7.07;;;6.37;;
1935;SDS011;969;49.892;10.896;2023-06-26T07:31:26;9.10;;;6.00;;
1935;SDS011;969;49.892;10.896;2023-06-26T07:33:52;18.10;;;6.77;;
1935;SDS011;969;49.892;10.896;2023-06-26T07:36:18;8.40;;;6.20;;
1935;SDS011;969;49.892;10.896;2023-06-26T07:38:43;11.20;;;6.87;;
1935;SDS011;969;49.892;10.896;2023-06-26T07:41:09;10.43;;;5.80;;
1935;SDS011;969;49.892;10.896;2023-06-26T07:43:34;7.93;;;6.13;;
1935;SDS011;969;49.892;10.896;2023-06-26T07:46:00;8.20;;;7.43;;
1935;SDS011;969;49.892;10.896;2023-06-26T07:48:25;7.43;;;6.73;;
1935;SDS011;969;49.892;10.896;2023-06-26T07:50:51;7.50;;;6.80;;
1935;SDS011;969;49.892;10.896;2023-06-26T07:53:17;8.13;;;6.97;;
1935;SDS011;969;49.892;10.896;2023-06-26T07:55:42;7.77;;;6.63;;
1935;SDS011;969;49.892;10.896;2023-06-26T07:58:08;8.03;;;7.00;;
1935;SDS011;969;49.892;10.896;2023-06-26T08:00:37;6.80;;;6.10;;
1935;SDS011;969;49.892;10.896;2023-06-26T08:03:03;6.10;;;5.50;;
1935;SDS011;969;49.892;10.896;2023-06-26T08:05:28;7.37;;;6.67;;
1935;SDS011;969;49.892;10.896;2023-06-26T08:07:54;9.53;;;8.53;;
1935;SDS011;969;49.892;10.896;2023-06-26T08:10:20;7.53;;;6.83;;
1935;SDS011;969;49.892;10.896;2023-06-26T08:12:45;7.80;;;6.97;;
1935;SDS011;969;49.892;10.896;2023-06-26T08:15:12;7.90;;;6.23;;
1935;SDS011;969;49.892;10.896;2023-06-26T08:17:37;8.13;;;7.00;;
1935;SDS011;969;49.892;10.896;2023-06-26T08:20:04;8.07;;;6.30;;
1935;SDS011;969;49.892;10.896;2023-06-26T08:22:32;7.50;;;6.80;;
1935;SDS011;969;49.892;10.896;2023-06-26T08:24:58;6.90;;;6.30;;
1935;SDS011;969;49.892;10.896;2023-06-26T08:27:24;7.43;;;6.73;;
1935;SDS011;969;49.892;10.896;2023-06-26T08:29:50;6.90;;;6.30;;
1935;SDS011;969;49.892;10.896;2023-06-26T08:32:16;7.10;;;6.40;;
1935;SDS011;969;49.892;10.896;2023-06-26T08:34:42;7.63;;;6.83;;
1935;SDS011;969;49.892;10.896;2023-06-26T08:37:07;7.13;;;6.43;;
1935;SDS011;969;49.892;10.896;2023-06-26T08:39:34;9.50;;;7.00;;
1935;SDS011;969;49.892;10.896;2023-06-26T08:42:00;9.10;;;7.37;;
1935;SDS011;969;49.892;10.896;2023-06-26T08:44:25;7.70;;;7.00;;
1935;SDS011;969;49.892;10.896;2023-06-26T08:46:51;7.63;;;6.93;;
1935;SDS011;969;49.892;10.896;2023-06-26T08:49:51;7.33;;;6.63;;
1935;SDS011;969;49.892;10.896;2023-06-26T08:52:35;9.67;;;7.40;;
1935;SDS011;969;49.892;10.896;2023-06-26T08:55:06;8.00;;;7.20;;
1935;SDS011;969;49.892;10.896;2023-06-26T08:57:35;10.33;;;8.30;;
1935;SDS011;969;49.892;10.896;2023-06-26T09:00:02;7.90;;;7.20;;
1935;SDS011;969;49.892;10.896;2023-06-26T09:02:28;13.20;;;7.40;;
1935;SDS011;969;49.892;10.896;2023-06-26T09:04:54;8.30;;;7.60;;
1935;SDS011;969;49.892;10.896;2023-06-26T09:07:20;8.70;;;7.83;;
1935;SDS011;969;49.892;10.896;2023-06-26T09:09:45;7.30;;;6.60;;
1935;SDS011;969;49.892;10.896;2023-06-26T09:12:11;8.60;;;7.80;;
1935;SDS011;969;49.892;10.896;2023-06-26T09:14:38;8.20;;;7.40;;
1935;SDS011;969;49.892;10.896;2023-06-26T09:17:04;8.67;;;7.27;;
1935;SDS011;969;49.892;10.896;2023-06-26T09:19:30;8.33;;;7.17;;
1935;SDS011;969;49.892;10.896;2023-06-26T09:21:55;9.03;;;8.13;;
1935;SDS011;969;49.892;10.896;2023-06-26T09:24:21;9.60;;;8.03;;
1935;SDS011;969;49.892;10.896;2023-06-26T09:26:47;8.10;;;7.30;;
1935;SDS011;969;49.892;10.896;2023-06-26T09:29:14;8.43;;;7.63;;
1935;SDS011;969;49.892;10.896;2023-06-26T09:31:40;8.53;;;7.50;;
1935;SDS011;969;49.892;10.896;2023-06-26T09:34:06;8.17;;;7.13;;
1935;SDS011;969;49.892;10.896;2023-06-26T09:36:32;8.93;;;7.67;;
1935;SDS011;969;49.892;10.896;2023-06-26T09:38:59;9.00;;;7.80;;
1935;SDS011;969;49.892;10.896;2023-06-26T09:41:25;8.40;;;7.50;;
1935;SDS011;969;49.892;10.896;2023-06-26T09:43:52;9.50;;;7.60;;
1935;SDS011;969;49.892;10.896;2023-06-26T09:46:24;7.90;;;7.00;;
1935;SDS011;969;49.892;10.896;2023-06-26T09:49:04;8.33;;;7.50;;
1935;SDS011;969;49.892;10.896;2023-06-26T09:51:31;8.03;;;7.33;;
1935;SDS011;969;49.892;10.896;2023-06-26T09:53:58;8.40;;;7.50;;
1935;SDS011;969;49.892;10.896;2023-06-26T09:56:24;8.53;;;7.70;;
1935;SDS011;969;49.892;10.896;2023-06-26T09:58:49;8.30;;;7.07;;
1935;SDS011;969;49.892;10.896;2023-06-26T10:01:16;9.33;;;7.53;;
1935;SDS011;969;49.892;10.896;2023-06-26T10:03:43;8.83;;;7.93;;
1935;SDS011;969;49.892;10.896;2023-06-26T10:06:09;8.10;;;7.30;;
1935;SDS011;969;49.892;10.896;2023-06-26T10:08:37;9.10;;;8.20;;
1935;SDS011;969;49.892;10.896;2023-06-26T10:11:04;9.20;;;8.30;;
1935;SDS011;969;49.892;10.896;2023-06-26T10:13:35;8.80;;;7.90;;
1935;SDS011;969;49.892;10.896;2023-06-26T10:16:04;9.60;;;7.97;;
1935;SDS011;969;49.892;10.896;2023-06-26T10:18:32;7.83;;;7.13;;
1935;SDS011;969;49.892;10.896;2023-06-26T10:21:01;8.97;;;7.63;;
1935;SDS011;969;49.892;10.896;2023-06-26T10:23:30;9.87;;;8.47;;
1935;SDS011;969;49.892;10.896;2023-06-26T10:25:57;8.57;;;7.77;;
1935;SDS011;969;49.892;10.896;2023-06-26T10:28:25;8.93;;;8.03;;
1935;SDS011;969;49.892;10.896;2023-06-26T10:30:53;11.93;;;8.77;;
1935;SDS011;969;49.892;10.896;2023-06-26T10:33:20;7.97;;;7.27;;
1935;SDS011;969;49.892;10.896;2023-06-26T10:35:47;8.27;;;7.47;;
1935;SDS011;969;49.892;10.896;2023-06-26T10:38:13;8.67;;;7.70;;
1935;SDS011;969;49.892;10.896;2023-06-26T10:40:42;11.10;;;8.70;;
1935;SDS011;969;49.892;10.896;2023-06-26T10:43:10;9.27;;;7.60;;
1935;SDS011;969;49.892;10.896;2023-06-26T10:45:38;8.53;;;7.67;;
1935;SDS011;969;49.892;10.896;2023-06-26T10:48:14;8.20;;;7.37;;
1935;SDS011;969;49.892;10.896;2023-06-26T10:50:40;7.97;;;7.17;;
1935;SDS011;969;49.892;10.896;2023-06-26T10:55:56;7.63;;;6.83;;
1935;SDS011;969;49.892;10.896;2023-06-26T10:58:40;8.50;;;7.60;;
1935;SDS011;969;49.892;10.896;2023-06-26T11:06:29;7.57;;;6.87;;
1935;SDS011;969;49.892;10.896;2023-06-26T11:14:22;7.43;;;6.73;;
1935;SDS011;969;49.892;10.896;2023-06-26T11:16:48;6.40;;;5.80;;
1935;SDS011;969;49.892;10.896;2023-06-26T11:19:16;6.77;;;6.17;;
1935;SDS011;969;49.892;10.896;2023-06-26T11:21:43;7.67;;;6.87;;
1935;SDS011;969;49.892;10.896;2023-06-26T11:24:09;8.03;;;6.60;;
1935;SDS011;969;49.892;10.896;2023-06-26T11:26:43;6.53;;;5.93;;
1935;SDS011;969;49.892;10.896;2023-06-26T11:29:10;6.27;;;5.73;;
1935;SDS011;969;49.892;10.896;2023-06-26T11:31:40;7.60;;;6.77;;
1935;SDS011;969;49.892;10.896;2023-06-26T11:34:10;7.53;;;6.83;;
1935;SDS011;969;49.892;10.896;2023-06-26T11:36:37;9.97;;;6.47;;
1935;SDS011;969;49.892;10.896;2023-06-26T11:39:04;7.13;;;6.30;;
1935;SDS011;969;49.892;10.896;2023-06-26T11:41:31;6.87;;;6.17;;
1935;SDS011;969;49.892;10.896;2023-06-26T11:44:01;6.53;;;5.83;;
1935;SDS011;969;49.892;10.896;2023-06-26T11:46:28;7.40;;;6.50;;
1935;SDS011;969;49.892;10.896;2023-06-26T11:48:55;6.97;;;6.30;;
1935;SDS011;969;49.892;10.896;2023-06-26T11:51:21;6.97;;;6.27;;
1935;SDS011;969;49.892;10.896;2023-06-26T11:53:47;7.23;;;6.40;;
1935;SDS011;969;49.892;10.896;2023-06-26T11:56:13;8.97;;;6.17;;
1935;SDS011;969;49.892;10.896;2023-06-26T12:01:33;6.93;;;6.30;;
1935;SDS011;969;49.892;10.896;2023-06-26T12:04:00;6.70;;;6.10;;
1935;SDS011;969;49.892;10.896;2023-06-26T12:06:48;6.37;;;5.40;;
1935;SDS011;969;49.892;10.896;2023-06-26T12:09:16;7.10;;;6.50;;
1935;SDS011;969;49.892;10.896;2023-06-26T12:11:46;6.60;;;5.90;;
1935;SDS011;969;49.892;10.896;2023-06-26T12:14:13;7.10;;;6.50;;
1935;SDS011;969;49.892;10.896;2023-06-26T12:16:40;6.40;;;5.80;;
1935;SDS011;969;49.892;10.896;2023-06-26T12:19:06;6.47;;;5.87;;
1935;SDS011;969;49.892;10.896;2023-06-26T12:24:01;8.60;;;7.00;;
1935;SDS011;969;49.892;10.896;2023-06-26T12:26:28;7.77;;;6.97;;
1935;SDS011;969;49.892;10.896;2023-06-26T12:29:01;8.40;;;6.80;;
1935;SDS011;969;49.892;10.896;2023-06-26T12:31:49;27.90;;;12.87;;
1935;SDS011;969;49.892;10.896;2023-06-26T12:34:20;16.63;;;10.17;;
1935;SDS011;969;49.892;10.896;2023-06-26T12:36:53;31.17;;;15.97;;
1935;SDS011;969;49.892;10.896;2023-06-26T12:39:21;31.30;;;13.60;;
1935;SDS011;969;49.892;10.896;2023-06-26T12:41:54;34.57;;;18.20;;
1935;SDS011;969;49.892;10.896;2023-06-26T12:44:25;30.93;;;17.03;;
1935;SDS011;969;49.892;10.896;2023-06-26T12:46:56;28.50;;;16.27;;
1935;SDS011;969;49.892;10.896;2023-06-26T12:49:31;28.80;;;15.07;;
1935;SDS011;969;49.892;10.896;2023-06-26T12:52:01;28.77;;;16.10;;
1935;SDS011;969;49.892;10.896;2023-06-26T12:54:30;34.43;;;17.77;;
1935;SDS011;969;49.892;10.896;2023-06-26T12:56:56;41.37;;;18.70;;
1935;SDS011;969;49.892;10.896;2023-06-26T12:59:23;44.43;;;21.53;;
1935;SDS011;969;49.892;10.896;2023-06-26T13:01:48;40.63;;;20.43;;
1935;SDS011;969;49.892;10.896;2023-06-26T13:04:14;35.37;;;18.67;;
1935;SDS011;969;49.892;10.896;2023-06-26T13:06:40;38.03;;;19.57;;
1935;SDS011;969;49.892;10.896;2023-06-26T13:09:05;39.63;;;19.20;;
1935;SDS011;969;49.892;10.896;2023-06-26T13:11:32;26.63;;;16.93;;
1935;SDS011;969;49.892;10.896;2023-06-26T13:13:58;32.50;;;16.80;;
1935;SDS011;969;49.892;10.896;2023-06-26T13:16:24;36.27;;;16.77;;
1935;SDS011;969;49.892;10.896;2023-06-26T13:18:50;26.70;;;15.67;;
1935;SDS011;969;49.892;10.896;2023-06-26T13:21:16;21.00;;;13.57;;
1935;SDS011;969;49.892;10.896;2023-06-26T13:23:43;22.27;;;11.93;;
1935;SDS011;969;49.892;10.896;2023-06-26T13:26:08;19.83;;;12.73;;
1935;SDS011;969;49.892;10.896;2023-06-26T13:28:35;19.40;;;12.60;;
1935;SDS011;969;49.892;10.896;2023-06-26T13:31:01;16.00;;;11.47;;
1935;SDS011;969;49.892;10.896;2023-06-26T13:33:27;15.90;;;10.20;;
1935;SDS011;969;49.892;10.896;2023-06-26T13:35:53;13.63;;;11.20;;
1935;SDS011;969;49.892;10.896;2023-06-26T13:38:20;14.57;;;10.53;;
1935;SDS011;969;49.892;10.896;2023-06-26T13:40:49;17.70;;;10.77;;
1935;SDS011;969;49.892;10.896;2023-06-26T13:43:25;14.27;;;10.33;;
1935;SDS011;969;49.892;10.896;2023-06-26T13:45:51;12.70;;;10.50;;
1935;SDS011;969;49.892;10.896;2023-06-26T13:48:17;13.00;;;9.23;;
1935;SDS011;969;49.892;10.896;2023-06-26T13:50:43;14.80;;;10.67;;
1935;SDS011;969;49.892;10.896;2023-06-26T13:53:10;15.13;;;10.20;;
1935;SDS011;969;49.892;10.896;2023-06-26T13:55:35;14.53;;;9.90;;
1935;SDS011;969;49.892;10.896;2023-06-26T13:58:03;11.57;;;9.33;;
1935;SDS011;969;49.892;10.896;2023-06-26T14:00:32;11.53;;;8.90;;
1935;SDS011;969;49.892;10.896;2023-06-26T14:03:02;12.27;;;9.90;;
1935;SDS011;969;49.892;10.896;2023-06-26T14:05:29;10.87;;;9.13;;
1935;SDS011;969;49.892;10.896;2023-06-26T14:07:55;12.00;;;8.40;;
1935;SDS011;969;49.892;10.896;2023-06-26T14:10:21;11.50;;;8.43;;
1935;SDS011;969;49.892;10.896;2023-06-26T14:12:47;12.10;;;8.00;;
1935;SDS011;969;49.892;10.896;2023-06-26T14:15:13;13.67;;;8.83;;
1935;SDS011;969;49.892;10.896;2023-06-26T14:17:39;12.80;;;8.90;;
1935;SDS011;969;49.892;10.896;2023-06-26T14:20:07;11.70;;;8.60;;
1935;SDS011;969;49.892;10.896;2023-06-26T14:22:40;9.97;;;8.10;;
1935;SDS011;969;49.892;10.896;2023-06-26T14:25:06;11.97;;;9.07;;
1935;SDS011;969;49.892;10.896;2023-06-26T14:27:33;9.93;;;8.20;;
1935;SDS011;969;49.892;10.896;2023-06-26T14:29:59;9.33;;;7.80;;
1935;SDS011;969;49.892;10.896;2023-06-26T14:32:24;8.73;;;7.80;;
1935;SDS011;969;49.892;10.896;2023-06-26T14:34:50;16.73;;;9.63;;
1935;SDS011;969;49.892;10.896;2023-06-26T14:37:15;11.07;;;8.17;;
1935;SDS011;969;49.892;10.896;2023-06-26T14:39:43;8.80;;;7.90;;
1935;SDS011;969;49.892;10.896;2023-06-26T14:42:09;8.67;;;7.77;;
1935;SDS011;969;49.892;10.896;2023-06-26T14:44:35;11.50;;;8.63;;
1935;SDS011;969;49.892;10.896;2023-06-26T14:47:00;8.90;;;8.03;;
1935;SDS011;969;49.892;10.896;2023-06-26T14:49:26;12.40;;;8.67;;
1935;SDS011;969;49.892;10.896;2023-06-26T14:51:52;9.03;;;7.97;;
1935;SDS011;969;49.892;10.896;2023-06-26T14:54:18;9.30;;;7.50;;
1935;SDS011;969;49.892;10.896;2023-06-26T14:56:43;9.13;;;8.23;;
1935;SDS011;969;49.892;10.896;2023-06-26T14:59:10;8.43;;;7.63;;
1935;SDS011;969;49.892;10.896;2023-06-26T15:01:37;9.17;;;8.23;;
1935;SDS011;969;49.892;10.896;2023-06-26T15:04:03;9.20;;;7.90;;
1935;SDS011;969;49.892;10.896;2023-06-26T15:06:29;9.60;;;8.40;;
1935;SDS011;969;49.892;10.896;2023-06-26T15:08:55;9.50;;;8.30;;
1935;SDS011;969;49.892;10.896;2023-06-26T15:11:21;10.03;;;8.33;;
1935;SDS011;969;49.892;10.896;2023-06-26T15:13:46;11.80;;;9.30;;
1935;SDS011;969;49.892;10.896;2023-06-26T15:16:12;9.03;;;8.07;;
1935;SDS011;969;49.892;10.896;2023-06-26T15:18:37;9.77;;;8.87;;
1935;SDS011;969;49.892;10.896;2023-06-26T15:21:03;9.00;;;8.10;;
1935;SDS011;969;49.892;10.896;2023-06-26T15:23:29;9.93;;;7.97;;
1935;SDS011;969;49.892;10.896;2023-06-26T15:25:55;9.07;;;8.17;;
1935;SDS011;969;49.892;10.896;2023-06-26T15:28:20;9.53;;;8.07;;
1935;SDS011;969;49.892;10.896;2023-06-26T15:30:46;8.63;;;7.83;;
1935;SDS011;969;49.892;10.896;2023-06-26T15:33:12;9.60;;;8.60;;
1935;SDS011;969;49.892;10.896;2023-06-26T15:35:38;9.13;;;8.23;;
1935;SDS011;969;49.892;10.896;2023-06-26T15:38:04;10.07;;;9.00;;
1935;SDS011;969;49.892;10.896;2023-06-26T15:40:29;9.03;;;8.10;;
1935;SDS011;969;49.892;10.896;2023-06-26T15:42:55;8.90;;;8.10;;